M I D A S
Marine Information and Data Acquisition System
Tripno 886 of the Zeeleeuw from 2005-04-28 06:45:36 to 2005-04-28 15:38:20
Back to CruiseResearch ActivitiesStationsMapUnderway DataData graphs

EquipmentUnitsComments
TimeDGPSUTC
LatitudeDGPSDM.mWGS84
LongitudeDGPSDM.mWGS84
SpeedMeteo Stationm/sRelative wind speed
DirectionMeteo StationdegRelative wind direction
TemperatureMeteo Stationdeg CelciusAir temperature
PressureMeteo StationPaAtmospheric pressure
HumidityMeteo Station%Relative humidity
Missing or incorrect values are displayed as -999
Metereological data collected by the RV Zeeleeuw from 2005-04-28 06:44:08 to 2005-04-28 15:48:48
Time Latitude Longitude Speed Direction Temperature Pressure Humidity
2005-04-28 06:45 51°13.597 2°56.108 2.8 26 10.6 101900 82
2005-04-28 06:46 51°13.597 2°56.104 1.9 51 10.6 101900 82
2005-04-28 06:47 51°13.61 2°56.052 0.9 69 10.6 101910 82
2005-04-28 06:48 51°13.635 2°55.966 1 163 10.6 101910 82
2005-04-28 06:49 51°13.677 2°55.858 1.6 86 10.7 101910 82
2005-04-28 06:50 51°13.719 2°55.755 1.6 123 10.7 101900 82
2005-04-28 06:51 51°13.732 2°55.737 2.2 95 10.7 101900 82
2005-04-28 06:52 51°13.728 2°55.708 1.8 129 10.8 101900 82
2005-04-28 06:53 51°13.774 2°55.686 0.8 182 10.8 101910 82
2005-04-28 06:54 51°13.861 2°55.619 0.7 73 10.8 101910 82
2005-04-28 06:55 51°13.978 2°55.531 1.7 16 10.9 101910 81
2005-04-28 06:56 51°14.103 2°55.438 1.3 5 10.9 101910 81
2005-04-28 06:57 51°14.249 2°55.287 2.4 350 10.9 101910 81
2005-04-28 06:58 51°14.361 2°55.052 4.1 326 10.9 101910 81
2005-04-28 06:59 51°14.523 2°54.825 3.2 354 11 101910 80
2005-04-28 07:00 51°14.728 2°54.71 2.2 42 11 101910 80
2005-04-28 07:01 51°14.946 2°54.649 2.9 87 11.1 101900 79
2005-04-28 07:02 51°15.158 2°54.576 1.8 58 11.1 101900 79
2005-04-28 07:03 51°15.374 2°54.51 1.8 57 11.1 101900 79
2005-04-28 07:04 51°15.588 2°54.399 1.4 71 11.1 101900 79
2005-04-28 07:05 51°15.806 2°54.285 0.7 53 11.1 101900 80
2005-04-28 07:06 51°15.995 2°54.191 2.2 128 11 101890 80
2005-04-28 07:07 51°16.112 2°54.214 4.1 121 11.1 101890 80
2005-04-28 07:08 51°16.204 2°54.255 5.1 117 11.1 101890 80
2005-04-28 07:09 51°16.242 2°54.276 5.5 108 11.1 101880 80
2005-04-28 07:10 51°16.244 2°54.256 6.1 108 11 101880 81
2005-04-28 07:11 51°16.246 2°54.237 5.5 107 11 101880 81
2005-04-28 07:12 51°16.247 2°54.219 6.9 102 11 101880 81
2005-04-28 07:13 51°16.249 2°54.199 7.2 102 11 101870 81
2005-04-28 07:14 51°16.252 2°54.18 6.5 101 11 101870 80
2005-04-28 07:15 51°16.254 2°54.161 6.4 102 11 101870 81
2005-04-28 07:16 51°16.256 2°54.14 6.4 101 11.1 101870 81
2005-04-28 07:17 51°16.259 2°54.12 7.5 105 11.1 101870 80
2005-04-28 07:18 51°16.261 2°54.099 7 104 11.1 101880 80
2005-04-28 07:19 51°16.264 2°54.079 6.7 107 11.1 101870 80
2005-04-28 07:20 51°16.267 2°54.058 7.4 111 11.1 101880 80
2005-04-28 07:21 51°16.27 2°54.038 7.1 108 11.1 101870 80
2005-04-28 07:22 51°16.272 2°54.017 6.4 108 11.2 101870 80
2005-04-28 07:23 51°16.275 2°54.001 6.1 108 11.2 101870 80
2005-04-28 07:24 51°16.329 2°54.023 3.6 162 11.2 101870 80
2005-04-28 07:25 51°16.451 2°53.875 3.5 283 11.2 101880 80
2005-04-28 07:26 51°16.606 2°53.609 3.7 301 11.2 101890 80
2005-04-28 07:27 51°16.767 2°53.337 3.8 296 11.3 101880 80
2005-04-28 07:28 51°16.923 2°53.076 4 279 11.3 101890 80
2005-04-28 07:29 51°17.077 2°52.821 5.7 289 11.3 101890 79
2005-04-28 07:30 51°17.236 2°52.537 5 297 11.4 101890 79
2005-04-28 07:31 51°17.405 2°52.28 4.6 288 11.4 101890 78
2005-04-28 07:32 51°17.58 2°52.027 4.3 285 11.4 101890 78
2005-04-28 07:33 51°17.754 2°51.781 4.3 291 11.5 101890 78
2005-04-28 07:34 51°17.927 2°51.533 5.4 281 11.5 101890 78
2005-04-28 07:35 51°18.102 2°51.28 5.6 279 11.5 101890 78
2005-04-28 07:36 51°18.275 2°51.057 2.2 252 11.5 101890 78
2005-04-28 07:37 51°18.405 2°51.015 4.4 153 11.4 101900 78
2005-04-28 07:38 51°18.472 2°51.042 7.1 125 11.4 101890 79
2005-04-28 07:39 51°18.48 2°51.021 7.8 122 11.3 101890 79
2005-04-28 07:40 51°18.485 2°51 8.7 125 11.3 101890 79
2005-04-28 07:41 51°18.491 2°50.979 8.6 120 11.2 101890 80
2005-04-28 07:42 51°18.497 2°50.959 9.1 113 11.2 101890 80
2005-04-28 07:43 51°18.503 2°50.94 8.6 108 11.2 101890 80
2005-04-28 07:44 51°18.509 2°50.922 7.8 101 11.2 101890 79
2005-04-28 07:45 51°18.514 2°50.908 8.9 101 11.2 101890 79
2005-04-28 07:46 51°18.52 2°50.902 8.4 107 11.2 101890 79
2005-04-28 07:47 51°18.526 2°50.902 7.2 117 11.2 101890 80
2005-04-28 07:48 51°18.535 2°50.91 6.5 111 11.2 101890 80
2005-04-28 07:49 51°18.542 2°50.921 7.1 116 11.2 101890 81
2005-04-28 07:50 51°18.548 2°50.931 8.4 100 11.2 101890 81
2005-04-28 07:51 51°18.553 2°50.94 7.4 96 11.2 101890 81
2005-04-28 07:52 51°18.558 2°50.949 8.4 101 11.1 101880 81
2005-04-28 07:53 51°18.561 2°50.955 7.5 101 11.1 101880 81
2005-04-28 07:54 51°18.565 2°50.953 8.5 94 11.2 101880 81
2005-04-28 07:55 51°18.568 2°50.944 7.2 98 11.2 101880 80
2005-04-28 07:56 51°18.571 2°50.931 7 98 11.2 101880 80
2005-04-28 07:57 51°18.57 2°50.915 7 96 11.2 101880 80
2005-04-28 07:58 51°18.574 2°50.894 6.9 98 11.2 101880 80
2005-04-28 07:59 51°18.58 2°50.937 8.3 83 11.2 101880 80
2005-04-28 08:00 51°18.633 2°51.201 8.9 66 11.3 101870 80
2005-04-28 08:01 51°18.695 2°51.51 10.3 63 11.2 101870 80
2005-04-28 08:02 51°18.765 2°51.819 8.7 67 11.3 101860 80
2005-04-28 08:03 51°18.835 2°52.127 9.5 69 11.3 101870 79
2005-04-28 08:04 51°18.904 2°52.44 8.3 73 11.3 101870 79
2005-04-28 08:05 51°18.972 2°52.745 4.4 68 11.4 101870 78
2005-04-28 08:06 51°19.039 2°53.056 9.2 71 11.4 101870 78
2005-04-28 08:07 51°19.105 2°53.361 9 66 11.5 101870 78
2005-04-28 08:08 51°19.167 2°53.676 8.9 66 11.5 101870 77
2005-04-28 08:09 51°19.228 2°53.983 9.6 67 11.6 101880 77
2005-04-28 08:10 51°19.289 2°54.291 9.1 63 11.7 101880 76
2005-04-28 08:11 51°19.354 2°54.597 9.1 65 11.7 101880 77
2005-04-28 08:12 51°19.432 2°54.902 8.1 68 11.7 101880 76
2005-04-28 08:13 51°19.513 2°55.205 9.5 62 11.7 101880 76
2005-04-28 08:14 51°19.582 2°55.515 9 57 11.7 101880 76
2005-04-28 08:15 51°19.649 2°55.823 8.5 61 11.8 101880 76
2005-04-28 08:16 51°19.716 2°56.138 9.5 63 11.8 101880 76
2005-04-28 08:17 51°19.788 2°56.448 9.2 59 11.8 101890 76
2005-04-28 08:18 51°19.859 2°56.752 8.8 60 11.8 101880 77
2005-04-28 08:19 51°19.926 2°57.057 9.5 60 11.7 101880 77
2005-04-28 08:20 51°19.994 2°57.35 8.9 53 11.8 101880 77
2005-04-28 08:21 51°20.061 2°57.646 9.4 64 11.8 101880 77
2005-04-28 08:22 51°20.127 2°57.944 9.9 60 11.7 101880 77
2005-04-28 08:23 51°20.192 2°58.242 9.6 62 11.7 101870 77
2005-04-28 08:24 51°20.257 2°58.538 9.4 59 11.7 101880 77
2005-04-28 08:25 51°20.322 2°58.839 9.7 62 11.7 101870 78
2005-04-28 08:26 51°20.387 2°59.135 9.8 67 11.7 101880 78
2005-04-28 08:27 51°20.45 2°59.426 9.6 67 11.7 101880 78
2005-04-28 08:28 51°20.513 2°59.724 8.8 65 11.7 101880 77
2005-04-28 08:29 51°20.579 3°0.014 9.4 63 11.8 101880 77
2005-04-28 08:30 51°20.64 3°0.299 8.7 66 11.8 101880 77
2005-04-28 08:31 51°20.704 3°0.591 8.7 62 11.8 101890 77
2005-04-28 08:32 51°20.769 3°0.882 8.1 71 11.8 101880 76
2005-04-28 08:33 51°20.83 3°1.171 8.6 69 11.9 101890 76
2005-04-28 08:34 51°20.891 3°1.456 8.5 64 11.9 101890 76
2005-04-28 08:35 51°20.955 3°1.747 8.7 65 11.9 101890 76
2005-04-28 08:36 51°21.016 3°2.037 8.4 68 11.9 101890 76
2005-04-28 08:37 51°21.079 3°2.322 8.9 57 12 101890 76
2005-04-28 08:38 51°21.142 3°2.613 8.2 65 12 101900 76
2005-04-28 08:39 51°21.204 3°2.896 7.9 69 11.9 101900 76
2005-04-28 08:40 51°21.265 3°3.183 8.3 65 12 101900 76
2005-04-28 08:41 51°21.328 3°3.475 7.8 57 11.9 101900 76
2005-04-28 08:42 51°21.389 3°3.757 8.8 64 11.9 101900 77
2005-04-28 08:43 51°21.453 3°4.048 8.8 63 11.9 101900 77
2005-04-28 08:44 51°21.51 3°4.332 8.4 61 12 101890 76
2005-04-28 08:45 51°21.572 3°4.62 7.2 69 12 101900 75
2005-04-28 08:46 51°21.63 3°4.905 8.2 61 12 101900 76
2005-04-28 08:47 51°21.685 3°5.193 8.2 60 12 101900 76
2005-04-28 08:48 51°21.739 3°5.48 8.4 62 12 101900 76
2005-04-28 08:49 51°21.795 3°5.763 8.2 62 12 101900 76
2005-04-28 08:50 51°21.855 3°6.058 8.4 63 12 101900 75
2005-04-28 08:51 51°21.902 3°6.361 9.6 64 12.1 101900 75
2005-04-28 08:52 51°21.946 3°6.66 8.8 60 12.1 101900 75
2005-04-28 08:53 51°21.993 3°6.968 9.1 66 12.2 101900 74
2005-04-28 08:54 51°22.038 3°7.264 8.7 70 12.2 101900 73
2005-04-28 08:55 51°22.084 3°7.568 9.6 62 12.3 101890 72
2005-04-28 08:56 51°22.106 3°7.869 9.8 56 12.4 101890 72
2005-04-28 08:57 51°22.129 3°8.174 9.2 55 12.4 101890 72
2005-04-28 08:58 51°22.153 3°8.484 10.5 60 12.4 101890 73
2005-04-28 08:59 51°22.178 3°8.794 11 62 12.4 101880 73
2005-04-28 09:00 51°22.206 3°9.096 9.8 68 12.4 101880 72
2005-04-28 09:01 51°22.239 3°9.392 10.5 64 12.5 101880 72
2005-04-28 09:02 51°22.277 3°9.694 9.7 65 12.5 101880 71
2005-04-28 09:03 51°22.314 3°9.994 9.2 77 12.6 101880 71
2005-04-28 09:04 51°22.344 3°10.302 10.3 62 12.7 101880 69
2005-04-28 09:05 51°22.379 3°10.611 8.9 66 12.9 101880 67
2005-04-28 09:06 51°22.414 3°10.918 9.1 58 13.1 101880 66
2005-04-28 09:07 51°22.431 3°11.228 10.1 58 13.2 101880 65
2005-04-28 09:08 51°22.444 3°11.543 10.9 64 13.2 101870 65
2005-04-28 09:09 51°22.467 3°11.853 10 69 13.2 101880 66
2005-04-28 09:10 51°22.495 3°12.167 9.9 43 13.2 101880 68
2005-04-28 09:11 51°22.525 3°12.475 10.6 53 13.2 101880 69
2005-04-28 09:12 51°22.554 3°12.789 10.9 54 13.2 101870 67
2005-04-28 09:13 51°22.575 3°13.015 8.8 68 13.3 101890 65
2005-04-28 09:14 51°22.578 3°13.14 7.3 85 13.2 101890 66
2005-04-28 09:15 51°22.598 3°13.189 7.4 116 13.3 101900 67
2005-04-28 09:16 51°22.611 3°13.193 6.6 112 13.2 101900 66
2005-04-28 09:17 51°22.62 3°13.186 7.5 108 13.3 101900 66
2005-04-28 09:18 51°22.626 3°13.172 7.5 104 13.3 101890 66
2005-04-28 09:19 51°22.632 3°13.151 6.5 107 13.3 101890 66
2005-04-28 09:20 51°22.636 3°13.127 6.6 111 13.3 101900 67
2005-04-28 09:21 51°22.654 3°13.143 6.4 112 13.3 101890 65
2005-04-28 09:22 51°22.728 3°13.291 6.5 84 13.4 101890 66
2005-04-28 09:23 51°22.843 3°13.503 6.2 91 13.3 101900 65
2005-04-28 09:24 51°22.993 3°13.658 3.6 104 13.3 101910 66
2005-04-28 09:25 51°23.182 3°13.657 0.7 340 13.3 101910 67
2005-04-28 09:26 51°23.378 3°13.599 1.1 235 13.4 101910 67
2005-04-28 09:27 51°23.568 3°13.523 1 234 13.5 101910 66
2005-04-28 09:28 51°23.763 3°13.451 1 218 13.7 101900 64
2005-04-28 09:29 51°23.956 3°13.38 0.5 255 14 101900 64
2005-04-28 09:30 51°24.163 3°13.323 1.6 60 14.2 101900 64
2005-04-28 09:31 51°24.382 3°13.332 2.3 97 14.1 101900 64
2005-04-28 09:32 51°24.58 3°13.418 5.2 66 13.7 101890 66
2005-04-28 09:33 51°24.731 3°13.625 5.8 70 13.3 101890 69
2005-04-28 09:34 51°24.854 3°13.875 7.2 66 13 101890 70
2005-04-28 09:35 51°24.967 3°14.138 8 60 12.9 101890 70
2005-04-28 09:36 51°25.061 3°14.422 8.6 66 12.8 101890 70
2005-04-28 09:37 51°25.143 3°14.724 7.5 70 12.8 101890 70
2005-04-28 09:38 51°25.221 3°15.029 8.7 67 12.8 101890 69
2005-04-28 09:39 51°25.294 3°15.336 6.9 74 12.9 101880 68
2005-04-28 09:40 51°25.367 3°15.639 8.4 66 13 101890 68
2005-04-28 09:41 51°25.44 3°15.942 8.7 72 13.1 101880 68
2005-04-28 09:42 51°25.508 3°16.242 7.9 76 13.1 101890 67
2005-04-28 09:43 51°25.57 3°16.541 7.1 74 13.1 101890 68
2005-04-28 09:44 51°25.662 3°16.824 6.4 76 13.1 101890 68
2005-04-28 09:45 51°25.743 3°17.078 9.2 97 13.1 101890 67
2005-04-28 09:46 51°25.786 3°17.247 6.9 101 13.2 101890 67
2005-04-28 09:47 51°25.827 3°17.376 6.2 108 13.2 101900 68
2005-04-28 09:48 51°25.857 3°17.494 6.8 113 13.2 101890 67
2005-04-28 09:49 51°25.864 3°17.526 8 121 13.2 101890 67
2005-04-28 09:50 51°25.865 3°17.543 7.9 120 13.2 101890 67
2005-04-28 09:51 51°25.864 3°17.557 7.7 115 13.2 101890 68
2005-04-28 09:52 51°25.862 3°17.565 6.9 116 13.2 101900 69
2005-04-28 09:53 51°25.859 3°17.569 6.8 115 13.1 101900 69
2005-04-28 09:54 51°25.855 3°17.604 7.4 79 13.1 101900 69
2005-04-28 09:55 51°25.776 3°17.701 10.2 9 13.1 101890 69
2005-04-28 09:56 51°25.665 3°17.571 9.5 316 13.1 101880 70
2005-04-28 09:57 51°25.637 3°17.25 11.9 320 13.2 101870 68
2005-04-28 09:58 51°25.61 3°16.89 11.7 317 13.2 101870 67
2005-04-28 09:59 51°25.572 3°16.527 11.4 316 13.3 101860 66
2005-04-28 10:00 51°25.563 3°16.17 12.5 315 13.4 101870 65
2005-04-28 10:01 51°25.528 3°15.815 11 311 13.4 101860 66
2005-04-28 10:02 51°25.502 3°15.463 11.1 43 13.5 101860 65
2005-04-28 10:03 51°25.477 3°15.098 9.8 312 13.5 101870 67
2005-04-28 10:04 51°25.44 3°14.735 10.9 320 13.4 101870 68
2005-04-28 10:05 51°25.388 3°14.375 11.1 322 13.4 101870 68
2005-04-28 10:06 51°25.321 3°14.005 11.8 322 13.4 101860 68
2005-04-28 10:07 51°25.252 3°13.633 11.8 330 13.4 101850 67
2005-04-28 10:08 51°25.184 3°13.265 10.9 324 13.4 101860 66
2005-04-28 10:09 51°25.115 3°12.901 13 328 13.5 101840 64
2005-04-28 10:10 51°25.036 3°12.543 14 328 13.6 101860 64
2005-04-28 10:11 51°24.955 3°12.184 12.5 317 13.8 101850 63
2005-04-28 10:12 51°24.873 3°11.83 13.5 326 13.8 101840 62
2005-04-28 10:13 51°24.8 3°11.469 12.2 325 13.9 101850 60
2005-04-28 10:14 51°24.769 3°11.098 11.7 312 14 101840 61
2005-04-28 10:15 51°24.792 3°10.728 10.2 312 14 101860 62
2005-04-28 10:16 51°24.806 3°10.358 12.5 309 14 101850 61
2005-04-28 10:17 51°24.817 3°9.991 9.7 43 14 101860 63
2005-04-28 10:18 51°24.834 3°9.63 10 315 13.9 101860 64
2005-04-28 10:19 51°24.87 3°9.28 9.4 310 13.8 101880 65
2005-04-28 10:20 51°24.884 3°8.924 9.9 315 13.7 101880 66
2005-04-28 10:21 51°24.927 3°8.58 8.7 311 13.7 101880 65
2005-04-28 10:22 51°24.942 3°8.233 9.3 317 13.6 101880 66
2005-04-28 10:23 51°24.988 3°7.89 8.4 311 13.5 101880 67
2005-04-28 10:24 51°25.126 3°7.658 2.6 278 13.5 101890 67
2005-04-28 10:25 51°25.317 3°7.564 2.1 294 13.5 101900 67
2005-04-28 10:26 51°25.51 3°7.473 2.2 312 13.6 101900 67
2005-04-28 10:27 51°25.711 3°7.458 1.2 67 13.5 101900 67
2005-04-28 10:28 51°25.889 3°7.598 3.9 68 13.4 101890 68
2005-04-28 10:29 51°26.046 3°7.789 5.2 85 13.2 101890 69
2005-04-28 10:30 51°26.199 3°7.973 4.9 91 13.2 101880 68
2005-04-28 10:31 51°26.327 3°8.142 5.5 116 13.2 101880 68
2005-04-28 10:32 51°26.39 3°8.215 6 155 13.3 101890 67
2005-04-28 10:33 51°26.421 3°8.249 6.7 145 13.3 101880 67
2005-04-28 10:34 51°26.426 3°8.271 7.3 132 13.4 101870 66
2005-04-28 10:35 51°26.421 3°8.288 7.2 129 13.4 101870 66
2005-04-28 10:36 51°26.409 3°8.301 7.6 121 13.3 101870 67
2005-04-28 10:37 51°26.394 3°8.309 6.6 115 13.3 101860 68
2005-04-28 10:38 51°26.381 3°8.335 7 118 13.2 101870 68
2005-04-28 10:39 51°26.436 3°8.353 3.5 223 13.2 101870 67
2005-04-28 10:40 51°26.572 3°8.207 7.5 294 13.3 101870 67
2005-04-28 10:41 51°26.653 3°7.883 7.9 305 13.4 101860 67
2005-04-28 10:42 51°26.732 3°7.55 7.8 302 13.4 101850 67
2005-04-28 10:43 51°26.83 3°7.224 8.1 297 13.4 101860 67
2005-04-28 10:44 51°26.928 3°6.903 6.7 296 13.4 101850 67
2005-04-28 10:45 51°27.033 3°6.593 7.6 298 13.4 101850 67
2005-04-28 10:46 51°27.141 3°6.278 7.3 298 13.4 101850 67
2005-04-28 10:47 51°27.251 3°5.967 6.3 298 13.4 101850 67
2005-04-28 10:48 51°27.369 3°5.664 7.2 296 13.4 101850 68
2005-04-28 10:49 51°27.487 3°5.363 6.2 301 13.4 101850 68
2005-04-28 10:50 51°27.607 3°5.056 6.4 295 13.4 101840 68
2005-04-28 10:51 51°27.727 3°4.752 5.9 291 13.4 101850 68
2005-04-28 10:52 51°27.846 3°4.444 5.5 302 13.4 101840 68
2005-04-28 10:53 51°27.967 3°4.131 6.2 311 13.3 101830 69
2005-04-28 10:54 51°28.091 3°3.824 6 298 13.3 101830 69
2005-04-28 10:55 51°28.198 3°3.554 6.3 273 13.3 101830 70
2005-04-28 10:56 51°28.211 3°3.41 6.9 281 13.2 101840 70
2005-04-28 10:57 51°28.203 3°3.41 6.4 263 13.2 101840 70
2005-04-28 10:58 51°28.191 3°3.402 4.4 259 13.1 101840 70
2005-04-28 10:59 51°28.178 3°3.388 6.5 250 13.1 101840 70
2005-04-28 11:00 51°28.164 3°3.367 6.3 246 13.1 101840 70
2005-04-28 11:01 51°28.151 3°3.342 7.1 245 13.1 101840 70
2005-04-28 11:02 51°28.138 3°3.314 5.8 247 13.1 101840 70
2005-04-28 11:03 51°28.127 3°3.285 5.5 253 13.1 101840 70
2005-04-28 11:04 51°28.119 3°3.227 8.2 273 13.1 101840 70
2005-04-28 11:05 51°28.132 3°2.969 9.1 310 13.1 101810 70
2005-04-28 11:06 51°28.114 3°2.582 11.1 317 13.1 101800 70
2005-04-28 11:07 51°28.074 3°2.184 10.1 321 13.1 101800 70
2005-04-28 11:08 51°28.029 3°1.791 11.6 320 13.1 101800 71
2005-04-28 11:09 51°27.976 3°1.392 10.8 322 13.1 101790 70
2005-04-28 11:10 51°27.927 3°0.999 11.1 321 13 101790 70
2005-04-28 11:11 51°27.869 3°0.6 11.2 327 13 101790 70
2005-04-28 11:12 51°27.804 3°0.21 11.6 324 13 101790 70
2005-04-28 11:13 51°27.738 2°59.818 11.2 325 12.9 101780 70
2005-04-28 11:14 51°27.673 2°59.425 13.1 319 13 101780 69
2005-04-28 11:15 51°27.61 2°59.033 11.8 319 13.1 101770 68
2005-04-28 11:16 51°27.55 2°58.638 11.9 318 13.2 101770 67
2005-04-28 11:17 51°27.49 2°58.245 12.3 320 13.3 101770 67
2005-04-28 11:18 51°27.431 2°57.851 11.2 319 13.3 101770 67
2005-04-28 11:19 51°27.372 2°57.455 12 325 13.2 101770 68
2005-04-28 11:20 51°27.31 2°57.061 11.9 320 13.1 101770 69
2005-04-28 11:21 51°27.249 2°56.661 11.5 324 13 101760 69
2005-04-28 11:22 51°27.187 2°56.257 12.7 323 13 101760 69
2005-04-28 11:23 51°27.128 2°55.86 12.5 321 13 101750 69
2005-04-28 11:24 51°27.071 2°55.468 13.1 323 13 101760 69
2005-04-28 11:25 51°27.012 2°55.06 13.3 325 13 101760 70
2005-04-28 11:26 51°26.958 2°54.665 12.8 325 13 101760 70
2005-04-28 11:27 51°26.901 2°54.265 12.9 326 13 101760 70
2005-04-28 11:28 51°26.844 2°53.876 12.7 330 13 101750 70
2005-04-28 11:29 51°26.788 2°53.48 13.5 324 13 101740 69
2005-04-28 11:30 51°26.735 2°53.091 13.1 323 13 101750 69
2005-04-28 11:31 51°26.685 2°52.7 12.5 324 13 101750 70
2005-04-28 11:32 51°26.635 2°52.313 13.4 320 13 101750 70
2005-04-28 11:33 51°26.587 2°51.925 14.4 319 13.1 101740 69
2005-04-28 11:34 51°26.538 2°51.54 13.1 320 13.1 101740 69
2005-04-28 11:35 51°26.482 2°51.155 13.7 324 13.2 101740 69
2005-04-28 11:36 51°26.426 2°50.771 14 323 13.3 101740 68
2005-04-28 11:37 51°26.365 2°50.385 13.6 326 13.3 101740 68
2005-04-28 11:38 51°26.296 2°50 13.3 326 13.2 101740 69
2005-04-28 11:39 51°26.227 2°49.614 12.5 327 13.1 101740 69
2005-04-28 11:40 51°26.157 2°49.226 14.6 327 13.2 101740 68
2005-04-28 11:41 51°26.091 2°48.856 12.4 330 13.2 101750 69
2005-04-28 11:42 51°26.04 2°48.654 10.1 41 13.1 101760 69
2005-04-28 11:43 51°26.027 2°48.549 8.5 301 13.1 101760 70
2005-04-28 11:44 51°26.024 2°48.528 8 280 13.1 101770 70
2005-04-28 11:45 51°26.018 2°48.51 8.2 269 13.1 101770 70
2005-04-28 11:46 51°26.011 2°48.486 7.6 263 13 101770 70
2005-04-28 11:47 51°26.006 2°48.458 6.4 261 13 101770 71
2005-04-28 11:48 51°26.002 2°48.427 5.7 255 12.9 101770 71
2005-04-28 11:49 51°25.999 2°48.394 5.1 256 12.8 101770 72
2005-04-28 11:50 51°26.006 2°48.338 6.3 262 12.8 101770 72
2005-04-28 11:51 51°26.054 2°48.212 7.3 274 12.8 101770 71
2005-04-28 11:52 51°26.113 2°47.92 11.9 320 12.9 101750 71
2005-04-28 11:53 51°26.035 2°47.562 13.6 339 12.9 101730 71
2005-04-28 11:54 51°25.909 2°47.23 14.4 342 12.9 101740 71
2005-04-28 11:55 51°25.781 2°46.9 13.7 337 12.9 101730 71
2005-04-28 11:56 51°25.654 2°46.567 14.2 339 12.9 101730 71
2005-04-28 11:57 51°25.528 2°46.233 13.7 343 12.9 101740 71
2005-04-28 11:58 51°25.406 2°45.897 15.1 347 12.8 101730 71
2005-04-28 11:59 51°25.276 2°45.569 15.7 347 12.9 101720 70
2005-04-28 12:00 51°25.144 2°45.241 15.2 346 13.1 101720 69
2005-04-28 12:01 51°25.014 2°44.911 15.4 345 13.2 101720 69
2005-04-28 12:02 51°24.888 2°44.59 14.7 343 13.1 101720 69
2005-04-28 12:03 51°24.757 2°44.251 14.7 346 13.2 101710 69
2005-04-28 12:04 51°24.631 2°43.919 14.9 346 13.2 101710 68
2005-04-28 12:05 51°24.507 2°43.592 14.3 341 13.2 101720 69
2005-04-28 12:06 51°24.378 2°43.256 15 344 13.1 101710 69
2005-04-28 12:07 51°24.252 2°42.925 14.9 344 13.1 101710 69
2005-04-28 12:08 51°24.126 2°42.594 14.3 341 13 101710 70
2005-04-28 12:09 51°24.001 2°42.27 14.8 343 13 101710 70
2005-04-28 12:10 51°23.87 2°41.946 15 342 13 101700 70
2005-04-28 12:11 51°23.743 2°41.619 15.7 341 13 101700 70
2005-04-28 12:12 51°23.616 2°41.291 14.8 341 13 101700 70
2005-04-28 12:13 51°23.488 2°40.964 15.1 340 13 101700 70
2005-04-28 12:14 51°23.361 2°40.638 15 339 12.9 101700 70
2005-04-28 12:15 51°23.234 2°40.312 14.6 342 12.9 101690 70
2005-04-28 12:16 51°23.112 2°39.983 14.8 338 12.9 101690 71
2005-04-28 12:17 51°22.991 2°39.653 15.1 346 12.8 101690 72
2005-04-28 12:18 51°22.871 2°39.323 14.1 340 12.9 101690 69
2005-04-28 12:19 51°22.747 2°39.001 13.2 336 13.1 101680 70
2005-04-28 12:20 51°22.626 2°38.684 12.6 339 12.9 101690 72
2005-04-28 12:21 51°22.501 2°38.361 13.1 338 12.8 101690 72
2005-04-28 12:22 51°22.377 2°38.043 13.3 337 12.7 101690 72
2005-04-28 12:23 51°22.256 2°37.724 12.3 335 12.6 101690 72
2005-04-28 12:24 51°22.143 2°37.399 13.3 340 12.5 101690 72
2005-04-28 12:25 51°22.033 2°37.082 12.3 340 12.5 101690 73
2005-04-28 12:26 51°21.917 2°36.75 12.6 339 12.5 101680 73
2005-04-28 12:27 51°21.805 2°36.424 13.1 342 12.5 101690 73
2005-04-28 12:28 51°21.693 2°36.102 12.8 340 12.5 101690 73
2005-04-28 12:29 51°21.585 2°35.771 12.8 342 12.5 101690 73
2005-04-28 12:30 51°21.482 2°35.448 11.6 341 12.5 101700 74
2005-04-28 12:31 51°21.375 2°35.116 11.1 346 12.4 101700 74
2005-04-28 12:32 51°21.27 2°34.789 10.7 348 12.3 101700 75
2005-04-28 12:33 51°21.162 2°34.461 10.5 349 12.2 101700 77
2005-04-28 12:34 51°21.061 2°34.128 10 347 12 101700 78
2005-04-28 12:35 51°20.958 2°33.793 10.7 350 12.1 101690 78
2005-04-28 12:36 51°20.859 2°33.455 9.9 350 12 101700 78
2005-04-28 12:37 51°20.781 2°33.102 10.4 348 12 101690 78
2005-04-28 12:38 51°20.704 2°32.748 10.5 343 12 101690 78
2005-04-28 12:39 51°20.626 2°32.394 11 342 12 101690 77
2005-04-28 12:40 51°20.548 2°32.042 11.1 344 12 101690 77
2005-04-28 12:41 51°20.471 2°31.691 10.8 344 12 101690 77
2005-04-28 12:42 51°20.394 2°31.344 10.5 344 12 101700 77
2005-04-28 12:43 51°20.304 2°31.01 10.9 349 12 101690 78
2005-04-28 12:44 51°20.207 2°30.685 10.8 346 12 101690 78
2005-04-28 12:45 51°20.121 2°30.401 8.9 342 11.9 101700 78
2005-04-28 12:46 51°20.071 2°30.243 6.3 327 11.9 101700 77
2005-04-28 12:47 51°20.043 2°30.137 6 323 12 101700 77
2005-04-28 12:48 51°20.026 2°30.082 5.5 43 12 101700 77
2005-04-28 12:49 51°20.024 2°30.077 6.6 312 12 101700 77
2005-04-28 12:50 51°20.025 2°30.073 5.3 306 12.1 101700 77
2005-04-28 12:51 51°20.028 2°30.073 5.6 311 12.1 101710 77
2005-04-28 12:52 51°20.03 2°30.077 5.7 315 12.2 101700 76
2005-04-28 12:53 51°20.026 2°30.073 6.1 339 12.3 101700 76
2005-04-28 12:54 51°19.977 2°30.089 7.5 30 12.3 101690 76
2005-04-28 12:55 51°19.856 2°30.194 11.6 21 12.1 101690 77
2005-04-28 12:56 51°19.689 2°30.415 12.5 35 12.1 101670 77
2005-04-28 12:57 51°19.543 2°30.696 13.3 37 12.1 101690 77
2005-04-28 12:58 51°19.401 2°30.97 12.2 42 12.1 101680 77
2005-04-28 12:59 51°19.286 2°31.269 12.4 44 12.2 101670 76
2005-04-28 13:00 51°19.176 2°31.572 12.4 47 12.3 101670 75
2005-04-28 13:01 51°19.064 2°31.874 12.9 44 12.4 101660 75
2005-04-28 13:02 51°18.951 2°32.18 12.5 45 12.4 101670 75
2005-04-28 13:03 51°18.85 2°32.498 11.8 43 12.4 101670 76
2005-04-28 13:04 51°18.76 2°32.829 11.5 43 12.3 101670 76
2005-04-28 13:05 51°18.671 2°33.164 11.8 43 12.2 101680 78
2005-04-28 13:06 51°18.58 2°33.499 11.9 43 12.2 101680 78
2005-04-28 13:07 51°18.487 2°33.837 11.8 42 12.2 101680 78
2005-04-28 13:08 51°18.395 2°34.165 12.1 44 12.3 101680 78
2005-04-28 13:09 51°18.311 2°34.499 12.2 52 12.4 101680 77
2005-04-28 13:10 51°18.232 2°34.84 11.9 50 12.5 101680 76
2005-04-28 13:11 51°18.151 2°35.184 11.7 48 12.6 101670 75
2005-04-28 13:12 51°18.052 2°35.519 12.5 39 12.6 101680 75
2005-04-28 13:13 51°17.924 2°35.829 12.9 38 12.7 101670 75
2005-04-28 13:14 51°17.76 2°36.088 13.8 26 12.7 101680 74
2005-04-28 13:15 51°17.571 2°36.29 13.9 23 12.8 101680 74
2005-04-28 13:16 51°17.366 2°36.415 14.7 19 12.9 101680 73
2005-04-28 13:17 51°17.164 2°36.531 14.1 19 13.1 101670 72
2005-04-28 13:18 51°16.963 2°36.649 14.4 23 13.1 101670 72
2005-04-28 13:19 51°16.784 2°36.746 12.7 15 13.2 101670 71
2005-04-28 13:20 51°16.695 2°36.763 10.3 14 13.3 101680 70
2005-04-28 13:21 51°16.657 2°36.784 8 354 13.3 101690 70
2005-04-28 13:22 51°16.664 2°36.802 8.7 334 13.4 101690 70
2005-04-28 13:23 51°16.677 2°36.819 8.8 311 13.4 101690 69
2005-04-28 13:24 51°16.695 2°36.836 7.6 286 13.4 101700 69
2005-04-28 13:25 51°16.714 2°36.855 8.9 275 13.4 101700 69
2005-04-28 13:26 51°16.734 2°36.873 8.1 266 13.4 101710 69
2005-04-28 13:27 51°16.755 2°36.893 8.1 270 13.4 101710 69
2005-04-28 13:28 51°16.776 2°36.912 9.1 268 13.4 101700 69
2005-04-28 13:29 51°16.797 2°36.931 6.7 261 13.3 101700 69
2005-04-28 13:30 51°16.82 2°36.95 8.1 268 13.3 101700 69
2005-04-28 13:31 51°16.842 2°36.97 8.4 272 13.4 101700 68
2005-04-28 13:32 51°16.864 2°36.986 9.9 283 13.4 101700 68
2005-04-28 13:33 51°16.865 2°36.944 9.8 352 13.5 101690 68
2005-04-28 13:34 51°16.732 2°36.911 14.6 14 13.5 101670 68
2005-04-28 13:35 51°16.535 2°36.994 13.7 27 13.5 101670 68
2005-04-28 13:36 51°16.343 2°37.152 14.5 24 13.5 101670 68
2005-04-28 13:37 51°16.145 2°37.279 13.9 22 13.4 101670 69
2005-04-28 13:38 51°15.942 2°37.404 13.9 19 13.4 101670 69
2005-04-28 13:39 51°15.737 2°37.531 13.7 15 13.4 101670 69
2005-04-28 13:40 51°15.537 2°37.685 13.1 16 13.4 101670 70
2005-04-28 13:41 51°15.336 2°37.845 13.3 24 13.3 101670 71
2005-04-28 13:42 51°15.138 2°38.016 14.9 23 13.3 101670 70
2005-04-28 13:43 51°14.947 2°38.212 14.5 27 13.4 101660 69
2005-04-28 13:44 51°14.765 2°38.423 14.7 26 13.5 101660 69
2005-04-28 13:45 51°14.586 2°38.635 15.1 23 13.6 101660 68
2005-04-28 13:46 51°14.399 2°38.814 15.5 23 13.8 101650 66
2005-04-28 13:47 51°14.197 2°38.923 16.8 11 14 101660 66
2005-04-28 13:48 51°13.994 2°38.892 16.2 353 14.1 101660 65
2005-04-28 13:49 51°13.806 2°38.778 16 355 14.3 101630 64
2005-04-28 13:50 51°13.617 2°38.659 16.1 354 14.3 101640 64
2005-04-28 13:51 51°13.432 2°38.527 15.4 351 14.4 101640 64
2005-04-28 13:52 51°13.246 2°38.395 14.4 354 14.4 101630 65
2005-04-28 13:53 51°13.061 2°38.265 15.1 355 14.3 101640 65
2005-04-28 13:54 51°12.879 2°38.129 14.5 350 14.3 101650 64
2005-04-28 13:55 51°12.705 2°37.973 14.5 353 14.3 101640 64
2005-04-28 13:56 51°12.529 2°37.819 14.1 355 14.3 101650 64
2005-04-28 13:57 51°12.355 2°37.67 15.7 353 14.4 101650 63
2005-04-28 13:58 51°12.181 2°37.521 15.1 351 14.5 101650 62
2005-04-28 13:59 51°12.005 2°37.37 14.7 353 14.5 101660 63
2005-04-28 14:00 51°11.827 2°37.217 15.4 350 14.6 101660 62
2005-04-28 14:01 51°11.651 2°37.064 14.2 349 14.6 101660 62
2005-04-28 14:02 51°11.477 2°36.913 14.2 356 14.6 101660 62
2005-04-28 14:03 51°11.302 2°36.76 16.6 350 14.7 101650 61
2005-04-28 14:04 51°11.127 2°36.61 15 347 14.9 101640 60
2005-04-28 14:05 51°10.951 2°36.459 14.8 352 14.9 101640 61
2005-04-28 14:06 51°10.777 2°36.308 14.7 350 15 101650 61
2005-04-28 14:07 51°10.602 2°36.157 16.3 351 14.8 101650 62
2005-04-28 14:08 51°10.431 2°36.01 15.1 350 14.9 101640 61
2005-04-28 14:09 51°10.252 2°35.886 15.1 356 15 101630 60
2005-04-28 14:10 51°10.056 2°35.868 15.3 12 15.1 101650 60
2005-04-28 14:11 51°9.889 2°36.088 13.7 42 15.1 101640 60
2005-04-28 14:12 51°9.843 2°36.465 10.7 66 15.1 101650 60
2005-04-28 14:13 51°9.876 2°36.864 8 73 15.1 101660 60
2005-04-28 14:14 51°9.95 2°37.247 7.8 61 15 101670 61
2005-04-28 14:15 51°10.043 2°37.628 7.6 74 14.9 101670 62
2005-04-28 14:16 51°10.131 2°38.008 8.9 78 14.9 101660 60
2005-04-28 14:17 51°10.219 2°38.391 10 82 15.1 101670 59
2005-04-28 14:18 51°10.308 2°38.774 7.9 71 15.2 101670 59
2005-04-28 14:19 51°10.395 2°39.163 6.9 69 15.3 101670 58
2005-04-28 14:20 51°10.482 2°39.547 8.9 86 15.4 101670 58
2005-04-28 14:21 51°10.567 2°39.932 7 76 15.5 101670 58
2005-04-28 14:22 51°10.658 2°40.322 7 70 15.4 101670 58
2005-04-28 14:23 51°10.759 2°40.701 7 73 15.3 101670 59
2005-04-28 14:24 51°10.853 2°41.083 8.4 78 15.5 101670 56
2005-04-28 14:25 51°10.944 2°41.467 8.1 59 15.6 101670 58
2005-04-28 14:26 51°11.026 2°41.811 7.3 73 15.5 101670 58
2005-04-28 14:27 51°11.088 2°42.019 7.4 129 15.6 101670 56
2005-04-28 14:28 51°11.111 2°42.07 8.8 140 15.9 101670 54
2005-04-28 14:29 51°11.121 2°42.094 7.5 142 16 101670 55
2005-04-28 14:30 51°11.135 2°42.126 7.3 134 15.9 101670 55
2005-04-28 14:31 51°11.152 2°42.162 7 142 16 101680 56
2005-04-28 14:32 51°11.171 2°42.202 6.8 227 15.9 101680 57
2005-04-28 14:33 51°11.188 2°42.239 8.5 135 15.7 101670 58
2005-04-28 14:34 51°11.205 2°42.271 7.1 135 15.6 101670 58
2005-04-28 14:35 51°11.219 2°42.299 7.7 145 15.5 101670 59
2005-04-28 14:36 51°11.23 2°42.325 9.1 148 15.3 101670 59
2005-04-28 14:37 51°11.242 2°42.355 6.5 154 15.6 101670 57
2005-04-28 14:38 51°11.252 2°42.384 8.2 158 15.6 101670 57
2005-04-28 14:39 51°11.254 2°42.408 8.1 162 15.7 101670 58
2005-04-28 14:40 51°11.256 2°42.431 8.8 161 15.8 101670 56
2005-04-28 14:41 51°11.264 2°42.462 8.6 160 16 101670 55
2005-04-28 14:42 51°11.271 2°42.49 6.8 154 16 101670 56
2005-04-28 14:43 51°11.276 2°42.517 6.8 143 15.8 101670 58
2005-04-28 14:44 51°11.286 2°42.547 8.4 153 15.7 101660 57
2005-04-28 14:45 51°11.301 2°42.581 7.7 149 15.8 101670 58
2005-04-28 14:46 51°11.319 2°42.62 7.3 136 15.8 101660 58
2005-04-28 14:47 51°11.338 2°42.66 8.7 141 15.7 101670 59
2005-04-28 14:48 51°11.357 2°42.703 8.4 131 15.7 101660 58
2005-04-28 14:49 51°11.377 2°42.746 9.8 117 15.8 101660 57
2005-04-28 14:50 51°11.398 2°42.79 9.2 123 16 101670 57
2005-04-28 14:51 51°11.457 2°42.898 3.7 193 16.1 101670 57
2005-04-28 14:52 51°11.55 2°42.827 9.8 311 16.2 101670 57
2005-04-28 14:53 51°11.495 2°42.671 12 338 16.2 101640 57
2005-04-28 14:54 51°11.387 2°42.514 11.9 342 16.2 101640 58
2005-04-28 14:55 51°11.274 2°42.36 11.3 337 16.1 101630 58
2005-04-28 14:56 51°11.203 2°42.237 10.5 329 16.1 101650 58
2005-04-28 14:57 51°11.153 2°42.155 8.4 339 16.1 101660 58
2005-04-28 14:58 51°11.127 2°42.146 8.5 322 16.1 101650 58
2005-04-28 14:59 51°11.131 2°42.156 8.4 311 16 101670 58
2005-04-28 15:00 51°11.14 2°42.156 6.9 228 16.1 101660 58
2005-04-28 15:01 51°11.141 2°42.15 7.9 320 16.1 101670 59
2005-04-28 15:02 51°11.082 2°42.164 11.1 26 16.1 101650 59
2005-04-28 15:03 51°11.025 2°42.395 10 74 16.1 101630 58
2005-04-28 15:04 51°11.055 2°42.781 8.9 59 16 101640 58
2005-04-28 15:05 51°11.106 2°43.172 8.9 75 15.9 101650 60
2005-04-28 15:06 51°11.168 2°43.562 8 70 15.9 101650 59
2005-04-28 15:07 51°11.231 2°43.951 10.6 65 15.9 101650 60
2005-04-28 15:08 51°11.292 2°44.34 10.3 62 16 101640 59
2005-04-28 15:09 51°11.353 2°44.733 9.1 78 16.1 101640 58
2005-04-28 15:10 51°11.431 2°45.115 8 67 16.1 101640 57
2005-04-28 15:11 51°11.51 2°45.5 9.4 85 16.2 101640 57
2005-04-28 15:12 51°11.59 2°45.884 8.5 80 16.1 101650 59
2005-04-28 15:13 51°11.68 2°46.267 8.8 93 16.1 101650 59
2005-04-28 15:14 51°11.785 2°46.64 7.1 80 16.2 101650 58
2005-04-28 15:15 51°11.895 2°47.007 8.8 82 16.2 101650 58
2005-04-28 15:16 51°12.014 2°47.367 6.2 69 16.2 101660 57
2005-04-28 15:17 51°12.131 2°47.729 7.2 77 16.3 101650 58
2005-04-28 15:18 51°12.251 2°48.092 5.5 75 16.3 101650 58
2005-04-28 15:19 51°12.369 2°48.455 7.2 68 16.2 101650 59
2005-04-28 15:20 51°12.494 2°48.811 6.2 67 16.2 101650 59
2005-04-28 15:21 51°12.619 2°49.169 7 80 16.2 101660 59
2005-04-28 15:22 51°12.744 2°49.528 6.7 77 16.3 101650 58
2005-04-28 15:23 51°12.873 2°49.883 6.1 79 16.3 101650 58
2005-04-28 15:24 51°13.005 2°50.236 6.2 69 16.3 101660 58
2005-04-28 15:25 51°13.135 2°50.59 6.5 73 16.3 101650 59
2005-04-28 15:26 51°13.267 2°50.942 7.4 82 16.3 101650 59
2005-04-28 15:27 51°13.4 2°51.292 7.7 81 16.3 101650 59
2005-04-28 15:28 51°13.53 2°51.643 6.3 71 16.3 101660 60
2005-04-28 15:29 51°13.662 2°51.994 5.8 77 16.2 101650 59
2005-04-28 15:30 51°13.795 2°52.345 6.9 68 16.3 101650 59
2005-04-28 15:31 51°13.926 2°52.695 7 58 16.3 101650 59
2005-04-28 15:32 51°14.061 2°53.048 7.7 64 16.4 101650 59
2005-04-28 15:33 51°14.189 2°53.393 6.2 68 16.4 101650 58
2005-04-28 15:34 51°14.322 2°53.743 7.6 58 16.5 101650 57
2005-04-28 15:35 51°14.416 2°54.097 7.6 53 16.5 101640 56
2005-04-28 15:36 51°14.45 2°54.456 9.7 49 16.6 101640 56
2005-04-28 15:37 51°14.431 2°54.79 9.7 46 16.8 101620 55
2005-04-28 15:38 51°14.355 2°55.07 6.3 24 16.9 101630 55
2005-04-28 15:39 51°14.253 2°55.278 10.9 33 17 101650 55
2005-04-28 15:40 51°14.149 2°55.415 9 27 17.1 101640 55
2005-04-28 15:41 51°14.036 2°55.498 7.1 26 17.2 101650 55
2005-04-28 15:42 51°13.915 2°55.583 8 9 17.2 101650 55
2005-04-28 15:43 51°13.792 2°55.668 8.5 15 17.3 101640 55
2005-04-28 15:44 51°13.708 2°55.778 6.9 37 17.3 101650 55
2005-04-28 15:45 51°13.658 2°55.887 5.9 26 17.3 101650 55
2005-04-28 15:46 51°13.624 2°55.988 5.4 50 17.3 101650 56
2005-04-28 15:47 51°13.606 2°56.076 4.5 67 17.3 101650 55
2005-04-28 15:48 51°13.599 2°56.105 3.5 71 17.3 101650 55